sensor_id;sensor_type;location;lat;lon;timestamp;pressure;altitude;pressure_sealevel;temperature;humidity
65190;BME280;51777;53.570;9.984;2023-07-31T00:01:17;100572.50;;;16.02;100.00
65190;BME280;51777;53.570;9.984;2023-07-31T00:03:42;100569.53;;;16.05;100.00
65190;BME280;51777;53.570;9.984;2023-07-31T00:06:08;100574.16;;;16.10;100.00
65190;BME280;51777;53.570;9.984;2023-07-31T00:08:33;100569.84;;;16.17;100.00
65190;BME280;51777;53.570;9.984;2023-07-31T00:10:58;100569.47;;;16.20;100.00
65190;BME280;51777;53.570;9.984;2023-07-31T00:13:24;100565.47;;;16.24;100.00
65190;BME280;51777;53.570;9.984;2023-07-31T00:15:49;100565.84;;;16.21;100.00
65190;BME280;51777;53.570;9.984;2023-07-31T00:18:15;100563.06;;;16.23;100.00
65190;BME280;51777;53.570;9.984;2023-07-31T00:20:40;100561.91;;;16.25;100.00
65190;BME280;51777;53.570;9.984;2023-07-31T00:23:06;100565.13;;;16.27;100.00
65190;BME280;51777;53.570;9.984;2023-07-31T00:25:31;100566.75;;;16.28;100.00
65190;BME280;51777;53.570;9.984;2023-07-31T00:27:57;100551.69;;;16.30;100.00
65190;BME280;51777;53.570;9.984;2023-07-31T00:30:22;100555.53;;;16.34;100.00
65190;BME280;51777;53.570;9.984;2023-07-31T00:32:47;100549.09;;;16.30;100.00
65190;BME280;51777;53.570;9.984;2023-07-31T00:35:13;100549.03;;;16.24;100.00
65190;BME280;51777;53.570;9.984;2023-07-31T00:37:38;100548.97;;;16.17;100.00
65190;BME280;51777;53.570;9.984;2023-07-31T00:40:04;100544.94;;;16.14;100.00
65190;BME280;51777;53.570;9.984;2023-07-31T00:42:30;100545.19;;;16.20;100.00
65190;BME280;51777;53.570;9.984;2023-07-31T00:44:55;100550.78;;;16.17;100.00
65190;BME280;51777;53.570;9.984;2023-07-31T00:47:21;100549.34;;;16.14;100.00
65190;BME280;51777;53.570;9.984;2023-07-31T00:49:46;100542.06;;;16.09;100.00
65190;BME280;51777;53.570;9.984;2023-07-31T00:52:13;100541.63;;;16.06;100.00
65190;BME280;51777;53.570;9.984;2023-07-31T00:54:38;100531.94;;;16.00;100.00
65190;BME280;51777;53.570;9.984;2023-07-31T00:57:04;100538.78;;;16.01;100.00
65190;BME280;51777;53.570;9.984;2023-07-31T00:59:29;100534.53;;;16.00;100.00
65190;BME280;51777;53.570;9.984;2023-07-31T01:01:54;100531.94;;;16.00;100.00
65190;BME280;51777;53.570;9.984;2023-07-31T01:04:20;100526.19;;;16.04;100.00
65190;BME280;51777;53.570;9.984;2023-07-31T01:12:09;100524.06;;;15.93;100.00
65190;BME280;51777;53.570;9.984;2023-07-31T01:14:35;100524.25;;;15.92;100.00
65190;BME280;51777;53.570;9.984;2023-07-31T01:17:01;100517.97;;;15.86;100.00
65190;BME280;51777;53.570;9.984;2023-07-31T01:19:26;100513.75;;;15.85;100.00
65190;BME280;51777;53.570;9.984;2023-07-31T01:27:17;100509.81;;;15.74;100.00
65190;BME280;51777;53.570;9.984;2023-07-31T01:29:56;100510.47;;;15.76;100.00
65190;BME280;51777;53.570;9.984;2023-07-31T01:32:28;100503.00;;;15.73;100.00
65190;BME280;51777;53.570;9.984;2023-07-31T01:34:54;100501.84;;;15.76;100.00
65190;BME280;51777;53.570;9.984;2023-07-31T01:37:21;100501.03;;;15.75;100.00
65190;BME280;51777;53.570;9.984;2023-07-31T01:39:46;100494.97;;;15.75;100.00
65190;BME280;51777;53.570;9.984;2023-07-31T01:42:11;100488.97;;;15.74;100.00
65190;BME280;51777;53.570;9.984;2023-07-31T01:44:37;100488.16;;;15.74;100.00
65190;BME280;51777;53.570;9.984;2023-07-31T01:47:02;100476.91;;;15.73;100.00
65190;BME280;51777;53.570;9.984;2023-07-31T01:49:28;100479.47;;;15.67;100.00
65190;BME280;51777;53.570;9.984;2023-07-31T01:51:53;100477.69;;;15.67;100.00
65190;BME280;51777;53.570;9.984;2023-07-31T01:54:18;100473.69;;;15.71;100.00
65190;BME280;51777;53.570;9.984;2023-07-31T01:56:44;100475.31;;;15.72;100.00
65190;BME280;51777;53.570;9.984;2023-07-31T01:59:09;100471.19;;;15.78;100.00
65190;BME280;51777;53.570;9.984;2023-07-31T02:01:34;100466.69;;;15.72;100.00
65190;BME280;51777;53.570;9.984;2023-07-31T02:04:00;100453.03;;;15.70;100.00
65190;BME280;51777;53.570;9.984;2023-07-31T02:06:25;100453.03;;;15.70;100.00
65190;BME280;51777;53.570;9.984;2023-07-31T02:08:51;100452.84;;;15.71;100.00
65190;BME280;51777;53.570;9.984;2023-07-31T02:11:16;100453.84;;;15.70;100.00
65190;BME280;51777;53.570;9.984;2023-07-31T02:13:41;100461.66;;;15.70;100.00
65190;BME280;51777;53.570;9.984;2023-07-31T02:16:07;100456.88;;;15.74;100.00
65190;BME280;51777;53.570;9.984;2023-07-31T02:18:32;100458.50;;;15.75;100.00
65190;BME280;51777;53.570;9.984;2023-07-31T02:20:57;100454.72;;;15.77;100.00
65190;BME280;51777;53.570;9.984;2023-07-31T02:23:23;100460.56;;;15.79;100.00
65190;BME280;51777;53.570;9.984;2023-07-31T02:25:48;100451.13;;;15.78;100.00
65190;BME280;51777;53.570;9.984;2023-07-31T02:28:14;100447.25;;;15.74;100.00
65190;BME280;51777;53.570;9.984;2023-07-31T02:30:39;100448.72;;;15.77;100.00
65190;BME280;51777;53.570;9.984;2023-07-31T02:33:05;100451.94;;;15.79;100.00
65190;BME280;51777;53.570;9.984;2023-07-31T02:35:31;100450.94;;;15.80;100.00
65190;BME280;51777;53.570;9.984;2023-07-31T02:37:56;100447.53;;;15.79;100.00
65190;BME280;51777;53.570;9.984;2023-07-31T02:40:21;100448.50;;;15.78;100.00
65190;BME280;51777;53.570;9.984;2023-07-31T02:42:47;100442.69;;;15.76;100.00
65190;BME280;51777;53.570;9.984;2023-07-31T02:45:12;100436.41;;;15.71;100.00
65190;BME280;51777;53.570;9.984;2023-07-31T02:47:38;100440.63;;;15.72;100.00
65190;BME280;51777;53.570;9.984;2023-07-31T02:50:03;100438.19;;;15.70;100.00
65190;BME280;51777;53.570;9.984;2023-07-31T02:52:30;100439.19;;;15.69;100.00
65190;BME280;51777;53.570;9.984;2023-07-31T02:54:55;100429.75;;;15.68;100.00
65190;BME280;51777;53.570;9.984;2023-07-31T02:57:20;100420.94;;;15.69;100.00
65190;BME280;51777;53.570;9.984;2023-07-31T02:59:46;100430.00;;;15.73;100.00
65190;BME280;51777;53.570;9.984;2023-07-31T03:02:11;100421.75;;;15.70;100.00
65190;BME280;51777;53.570;9.984;2023-07-31T03:04:38;100415.75;;;15.69;100.00
65190;BME280;51777;53.570;9.984;2023-07-31T03:07:03;100430.16;;;15.65;100.00
65190;BME280;51777;53.570;9.984;2023-07-31T03:09:29;100422.94;;;15.67;100.00
65190;BME280;51777;53.570;9.984;2023-07-31T03:11:54;100428.16;;;15.67;100.00
65190;BME280;51777;53.570;9.984;2023-07-31T03:14:20;100418.34;;;15.69;100.00
65190;BME280;51777;53.570;9.984;2023-07-31T03:16:45;100419.34;;;15.68;100.00
65190;BME280;51777;53.570;9.984;2023-07-31T03:19:11;100416.34;;;15.71;100.00
65190;BME280;51777;53.570;9.984;2023-07-31T03:21:36;100413.56;;;15.73;100.00
65190;BME280;51777;53.570;9.984;2023-07-31T03:24:01;100405.31;;;15.69;100.00
65190;BME280;51777;53.570;9.984;2023-07-31T03:26:27;100400.91;;;15.70;100.00
65190;BME280;51777;53.570;9.984;2023-07-31T03:28:52;100401.47;;;15.65;100.00
65190;BME280;51777;53.570;9.984;2023-07-31T03:31:17;100399.06;;;15.64;100.00
65190;BME280;51777;53.570;9.984;2023-07-31T03:33:43;100394.47;;;15.66;100.00
65190;BME280;51777;53.570;9.984;2023-07-31T03:36:08;100403.69;;;15.68;100.00
65190;BME280;51777;53.570;9.984;2023-07-31T03:38:34;100395.88;;;15.68;100.00
65190;BME280;51777;53.570;9.984;2023-07-31T03:41:00;100397.50;;;15.69;100.00
65190;BME280;51777;53.570;9.984;2023-07-31T03:43:25;100397.31;;;15.71;100.00
65190;BME280;51777;53.570;9.984;2023-07-31T03:45:51;100393.78;;;15.78;100.00
65190;BME280;51777;53.570;9.984;2023-07-31T03:48:16;100403.75;;;15.75;100.00
65190;BME280;51777;53.570;9.984;2023-07-31T03:50:42;100399.78;;;15.79;100.00
65190;BME280;51777;53.570;9.984;2023-07-31T03:53:07;100397.09;;;15.72;100.00
65190;BME280;51777;53.570;9.984;2023-07-31T03:55:33;100402.59;;;15.77;100.00
65190;BME280;51777;53.570;9.984;2023-07-31T03:57:58;100396.75;;;15.75;100.00
65190;BME280;51777;53.570;9.984;2023-07-31T04:00:26;100399.19;;;15.77;100.00
65190;BME280;51777;53.570;9.984;2023-07-31T04:02:52;100404.38;;;15.77;100.00
65190;BME280;51777;53.570;9.984;2023-07-31T04:05:17;100402.94;;;15.74;100.00
65190;BME280;51777;53.570;9.984;2023-07-31T04:07:43;100403.38;;;15.78;100.00
65190;BME280;51777;53.570;9.984;2023-07-31T04:10:08;100403.59;;;15.76;100.00
65190;BME280;51777;53.570;9.984;2023-07-31T04:12:34;100402.94;;;15.74;100.00
65190;BME280;51777;53.570;9.984;2023-07-31T04:14:59;100389.56;;;15.77;100.00
65190;BME280;51777;53.570;9.984;2023-07-31T04:17:25;100392.50;;;15.74;100.00
65190;BME280;51777;53.570;9.984;2023-07-31T04:19:50;100389.56;;;15.77;100.00
65190;BME280;51777;53.570;9.984;2023-07-31T04:22:16;100387.13;;;15.76;100.00
65190;BME280;51777;53.570;9.984;2023-07-31T04:24:41;100388.50;;;15.72;100.00
65190;BME280;51777;53.570;9.984;2023-07-31T04:27:06;100385.47;;;15.68;100.00
65190;BME280;51777;53.570;9.984;2023-07-31T04:29:32;100384.03;;;15.66;100.00
65190;BME280;51777;53.570;9.984;2023-07-31T04:31:57;100379.81;;;15.65;100.00
65190;BME280;51777;53.570;9.984;2023-07-31T04:34:23;100380.81;;;15.64;100.00
65190;BME280;51777;53.570;9.984;2023-07-31T04:36:48;100376.41;;;15.64;100.00
65190;BME280;51777;53.570;9.984;2023-07-31T04:39:13;100377.41;;;15.63;100.00
65190;BME280;51777;53.570;9.984;2023-07-31T04:41:39;100371.00;;;15.66;100.00
65190;BME280;51777;53.570;9.984;2023-07-31T04:44:04;100373.66;;;15.72;100.00
65190;BME280;51777;53.570;9.984;2023-07-31T04:46:30;100363.00;;;15.67;100.00
65190;BME280;51777;53.570;9.984;2023-07-31T04:48:55;100368.63;;;15.71;100.00
65190;BME280;51777;53.570;9.984;2023-07-31T04:51:21;100362.81;;;15.69;100.00
65190;BME280;51777;53.570;9.984;2023-07-31T04:53:46;100363.41;;;15.71;100.00
65190;BME280;51777;53.570;9.984;2023-07-31T04:56:15;100363.00;;;15.67;100.00
65190;BME280;51777;53.570;9.984;2023-07-31T04:58:41;100366.81;;;15.71;100.00
65190;BME280;51777;53.570;9.984;2023-07-31T05:01:06;100366.22;;;15.69;100.00
65190;BME280;51777;53.570;9.984;2023-07-31T05:03:32;100369.75;;;15.62;100.00
65190;BME280;51777;53.570;9.984;2023-07-31T05:05:57;100370.56;;;15.62;100.00
65190;BME280;51777;53.570;9.984;2023-07-31T05:08:22;100378.44;;;15.69;100.00
65190;BME280;51777;53.570;9.984;2023-07-31T05:10:48;100377.22;;;15.65;100.00
65190;BME280;51777;53.570;9.984;2023-07-31T05:13:14;100371.53;;;15.61;100.00
65190;BME280;51777;53.570;9.984;2023-07-31T05:15:40;100375.59;;;15.64;100.00
65190;BME280;51777;53.570;9.984;2023-07-31T05:18:06;100369.19;;;15.66;100.00
65190;BME280;51777;53.570;9.984;2023-07-31T05:20:31;100372.91;;;15.57;100.00
65190;BME280;51777;53.570;9.984;2023-07-31T05:22:58;100367.44;;;15.52;100.00
65190;BME280;51777;53.570;9.984;2023-07-31T05:25:23;100368.59;;;15.49;100.00
65190;BME280;51777;53.570;9.984;2023-07-31T05:27:49;100365.03;;;15.50;100.00
65190;BME280;51777;53.570;9.984;2023-07-31T05:30:14;100358.75;;;15.45;100.00
65190;BME280;51777;53.570;9.984;2023-07-31T05:32:39;100366.75;;;15.43;100.00
65190;BME280;51777;53.570;9.984;2023-07-31T05:35:05;100356.22;;;15.51;100.00
65190;BME280;51777;53.570;9.984;2023-07-31T05:37:30;100354.53;;;15.44;100.00
65190;BME280;51777;53.570;9.984;2023-07-31T05:39:56;100352.50;;;15.39;100.00
65190;BME280;51777;53.570;9.984;2023-07-31T05:42:21;100350.56;;;15.48;100.00
65190;BME280;51777;53.570;9.984;2023-07-31T05:44:47;100358.81;;;15.51;100.00
65190;BME280;51777;53.570;9.984;2023-07-31T05:47:13;100342.50;;;15.43;100.00
65190;BME280;51777;53.570;9.984;2023-07-31T05:49:39;100342.50;;;15.43;100.00
65190;BME280;51777;53.570;9.984;2023-07-31T05:52:04;100336.41;;;15.36;100.00
65190;BME280;51777;53.570;9.984;2023-07-31T05:54:30;100344.31;;;15.42;100.00
65190;BME280;51777;53.570;9.984;2023-07-31T05:56:55;100336.91;;;15.46;100.00
65190;BME280;51777;53.570;9.984;2023-07-31T05:59:20;100333.13;;;15.48;100.00
65190;BME280;51777;53.570;9.984;2023-07-31T06:01:46;100333.91;;;15.64;100.00
65190;BME280;51777;53.570;9.984;2023-07-31T06:04:11;100335.31;;;15.66;100.00
65190;BME280;51777;53.570;9.984;2023-07-31T06:06:37;100333.56;;;15.73;100.00
65190;BME280;51777;53.570;9.984;2023-07-31T06:09:02;100331.72;;;15.67;100.00
65190;BME280;51777;53.570;9.984;2023-07-31T06:11:28;100329.91;;;15.68;100.00
65190;BME280;51777;53.570;9.984;2023-07-31T06:13:54;100329.91;;;15.68;100.00
65190;BME280;51777;53.570;9.984;2023-07-31T06:16:19;100334.03;;;15.83;100.00
65190;BME280;51777;53.570;9.984;2023-07-31T06:18:46;100327.69;;;15.93;100.00
65190;BME280;51777;53.570;9.984;2023-07-31T06:21:12;100330.09;;;15.94;100.00
65190;BME280;51777;53.570;9.984;2023-07-31T06:23:37;100330.31;;;15.99;100.00
65190;BME280;51777;53.570;9.984;2023-07-31T06:26:03;100325.31;;;15.98;100.00
65190;BME280;51777;53.570;9.984;2023-07-31T06:28:29;100332.38;;;16.04;100.00
65190;BME280;51777;53.570;9.984;2023-07-31T06:30:55;100336.41;;;16.06;100.00
65190;BME280;51777;53.570;9.984;2023-07-31T06:33:21;100330.38;;;16.06;100.00
65190;BME280;51777;53.570;9.984;2023-07-31T06:35:46;100334.09;;;15.90;100.00
65190;BME280;51777;53.570;9.984;2023-07-31T06:38:12;100322.47;;;15.93;100.00
65190;BME280;51777;53.570;9.984;2023-07-31T06:40:37;100330.16;;;16.01;100.00
65190;BME280;51777;53.570;9.984;2023-07-31T06:43:02;100326.13;;;15.98;100.00
65190;BME280;51777;53.570;9.984;2023-07-31T06:45:36;100324.88;;;15.94;100.00
65190;BME280;51777;53.570;9.984;2023-07-31T06:48:03;100319.66;;;15.88;100.00
65190;BME280;51777;53.570;9.984;2023-07-31T06:50:29;100330.41;;;15.78;100.00
65190;BME280;51777;53.570;9.984;2023-07-31T06:52:55;100332.44;;;15.82;100.00
65190;BME280;51777;53.570;9.984;2023-07-31T06:55:21;100335.44;;;15.86;100.00
65190;BME280;51777;53.570;9.984;2023-07-31T06:57:49;100327.50;;;15.94;100.00
65190;BME280;51777;53.570;9.984;2023-07-31T07:00:15;100331.91;;;15.94;100.00
65190;BME280;51777;53.570;9.984;2023-07-31T07:02:41;100337.78;;;16.02;100.00
65190;BME280;51777;53.570;9.984;2023-07-31T07:05:07;100334.00;;;16.05;100.00
65190;BME280;51777;53.570;9.984;2023-07-31T07:07:33;100329.66;;;16.19;100.00
65190;BME280;51777;53.570;9.984;2023-07-31T07:09:58;100328.25;;;16.16;100.00
65190;BME280;51777;53.570;9.984;2023-07-31T07:12:30;100340.22;;;16.04;100.00
65190;BME280;51777;53.570;9.984;2023-07-31T07:14:55;100337.34;;;15.99;100.00
65190;BME280;51777;53.570;9.984;2023-07-31T07:17:22;100330.91;;;15.95;100.00
65190;BME280;51777;53.570;9.984;2023-07-31T07:19:48;100332.78;;;16.01;100.00
65190;BME280;51777;53.570;9.984;2023-07-31T07:22:14;100331.00;;;16.08;100.00
65190;BME280;51777;53.570;9.984;2023-07-31T07:24:42;100327.16;;;16.04;100.00
65190;BME280;51777;53.570;9.984;2023-07-31T07:27:08;100327.56;;;16.01;100.00
65190;BME280;51777;53.570;9.984;2023-07-31T07:29:34;100321.34;;;16.02;100.00
65190;BME280;51777;53.570;9.984;2023-07-31T07:31:59;100319.94;;;16.06;100.00
65190;BME280;51777;53.570;9.984;2023-07-31T07:34:28;100320.88;;;16.26;100.00
65190;BME280;51777;53.570;9.984;2023-07-31T07:36:54;100324.72;;;16.37;100.00
65190;BME280;51777;53.570;9.984;2023-07-31T07:39:20;100321.69;;;16.33;100.00
65190;BME280;51777;53.570;9.984;2023-07-31T07:41:46;100329.72;;;16.32;100.00
65190;BME280;51777;53.570;9.984;2023-07-31T07:44:13;100327.31;;;16.30;100.00
65190;BME280;51777;53.570;9.984;2023-07-31T07:46:38;100323.16;;;16.42;100.00
65190;BME280;51777;53.570;9.984;2023-07-31T07:49:04;100320.50;;;16.36;100.00
65190;BME280;51777;53.570;9.984;2023-07-31T07:51:29;100314.47;;;16.35;100.00
65190;BME280;51777;53.570;9.984;2023-07-31T07:53:57;100312.50;;;16.37;100.00
65190;BME280;51777;53.570;9.984;2023-07-31T07:56:23;100314.38;;;16.50;100.00
65190;BME280;51777;53.570;9.984;2023-07-31T07:58:49;100312.19;;;16.54;100.00
65190;BME280;51777;53.570;9.984;2023-07-31T08:01:15;100314.31;;;16.78;100.00
65190;BME280;51777;53.570;9.984;2023-07-31T08:03:41;100316.50;;;16.81;100.00
65190;BME280;51777;53.570;9.984;2023-07-31T08:06:06;100313.72;;;16.89;100.00
65190;BME280;51777;53.570;9.984;2023-07-31T08:08:34;100313.13;;;16.94;100.00
65190;BME280;51777;53.570;9.984;2023-07-31T08:11:00;100302.91;;;17.06;100.00
65190;BME280;51777;53.570;9.984;2023-07-31T08:13:25;100310.38;;;17.22;100.00
65190;BME280;51777;53.570;9.984;2023-07-31T08:15:50;100312.19;;;17.28;100.00
65190;BME280;51777;53.570;9.984;2023-07-31T08:18:16;100315.78;;;17.07;100.00
65190;BME280;51777;53.570;9.984;2023-07-31T08:20:42;100309.38;;;17.16;100.00
65190;BME280;51777;53.570;9.984;2023-07-31T08:23:07;100300.13;;;17.27;100.00
65190;BME280;51777;53.570;9.984;2023-07-31T08:25:36;100284.06;;;17.37;100.00
65190;BME280;51777;53.570;9.984;2023-07-31T08:28:03;100289.47;;;17.55;100.00
65190;BME280;51777;53.570;9.984;2023-07-31T08:30:28;100287.25;;;17.65;100.00
65190;BME280;51777;53.570;9.984;2023-07-31T08:32:54;100280.44;;;17.71;100.00
65190;BME280;51777;53.570;9.984;2023-07-31T08:35:19;100275.81;;;17.86;100.00
65190;BME280;51777;53.570;9.984;2023-07-31T08:37:45;100277.38;;;17.94;100.00
65190;BME280;51777;53.570;9.984;2023-07-31T08:40:10;100273.81;;;17.75;100.00
65190;BME280;51777;53.570;9.984;2023-07-31T08:42:47;100267.34;;;17.44;100.00
65190;BME280;51777;53.570;9.984;2023-07-31T08:45:17;100264.75;;;17.71;100.00
65190;BME280;51777;53.570;9.984;2023-07-31T08:47:48;100266.94;;;17.87;100.00
65190;BME280;51777;53.570;9.984;2023-07-31T08:50:15;100271.72;;;17.97;100.00
65190;BME280;51777;53.570;9.984;2023-07-31T08:52:40;100274.38;;;17.83;100.00
65190;BME280;51777;53.570;9.984;2023-07-31T08:55:07;100274.19;;;17.72;100.00
65190;BME280;51777;53.570;9.984;2023-07-31T08:57:35;100271.56;;;17.92;100.00
65190;BME280;51777;53.570;9.984;2023-07-31T09:00:03;100268.75;;;17.80;100.00
65190;BME280;51777;53.570;9.984;2023-07-31T09:02:45;100272.78;;;17.69;100.00
65190;BME280;51777;53.570;9.984;2023-07-31T09:05:11;100269.16;;;17.44;100.00
65190;BME280;51777;53.570;9.984;2023-07-31T09:07:37;100266.97;;;17.41;100.00
65190;BME280;51777;53.570;9.984;2023-07-31T09:10:04;100260.34;;;17.51;100.00
65190;BME280;51777;53.570;9.984;2023-07-31T09:12:30;100265.13;;;17.61;100.00
65190;BME280;51777;53.570;9.984;2023-07-31T09:14:57;100264.53;;;17.59;100.00
65190;BME280;51777;53.570;9.984;2023-07-31T09:17:33;100271.81;;;17.37;100.00
65190;BME280;51777;53.570;9.984;2023-07-31T09:20:16;100270.97;;;17.43;100.00
65190;BME280;51777;53.570;9.984;2023-07-31T09:22:42;100263.94;;;17.50;100.00
65190;BME280;51777;53.570;9.984;2023-07-31T09:27:48;100255.28;;;17.70;100.00
65190;BME280;51777;53.570;9.984;2023-07-31T09:30:15;100254.63;;;18.01;100.00
65190;BME280;51777;53.570;9.984;2023-07-31T09:32:40;100252.94;;;18.19;100.00
65190;BME280;51777;53.570;9.984;2023-07-31T09:35:32;100240.00;;;18.38;100.00
65190;BME280;51777;53.570;9.984;2023-07-31T09:38:04;100239.09;;;18.57;100.00
65190;BME280;51777;53.570;9.984;2023-07-31T09:40:49;100233.41;;;18.60;100.00
65190;BME280;51777;53.570;9.984;2023-07-31T09:43:19;100235.50;;;18.52;100.00
65190;BME280;51777;53.570;9.984;2023-07-31T09:45:46;100227.88;;;18.50;100.00
65190;BME280;51777;53.570;9.984;2023-07-31T09:48:18;100221.25;;;18.41;100.00
65190;BME280;51777;53.570;9.984;2023-07-31T09:50:48;100214.28;;;18.28;100.00
65190;BME280;51777;53.570;9.984;2023-07-31T09:53:15;100217.91;;;18.27;100.00
65190;BME280;51777;53.570;9.984;2023-07-31T09:55:41;100213.50;;;18.21;100.00
65190;BME280;51777;53.570;9.984;2023-07-31T09:58:09;100211.50;;;18.16;100.00
65190;BME280;51777;53.570;9.984;2023-07-31T10:00:36;100210.19;;;18.39;100.00
65190;BME280;51777;53.570;9.984;2023-07-31T10:03:05;100209.69;;;18.55;100.00
65190;BME280;51777;53.570;9.984;2023-07-31T10:08:00;100210.94;;;18.46;100.00
65190;BME280;51777;53.570;9.984;2023-07-31T10:10:26;100206.06;;;18.56;100.00
65190;BME280;51777;53.570;9.984;2023-07-31T10:12:53;100205.25;;;18.56;100.00
65190;BME280;51777;53.570;9.984;2023-07-31T10:15:19;100203.41;;;18.63;100.00
65190;BME280;51777;53.570;9.984;2023-07-31T10:17:48;100212.47;;;18.60;100.00
65190;BME280;51777;53.570;9.984;2023-07-31T10:20:14;100208.81;;;18.36;100.00
65190;BME280;51777;53.570;9.984;2023-07-31T10:22:42;100206.66;;;18.20;100.00
65190;BME280;51777;53.570;9.984;2023-07-31T10:25:10;100210.91;;;18.14;100.00
65190;BME280;51777;53.570;9.984;2023-07-31T10:27:38;100200.63;;;18.19;100.00
65190;BME280;51777;53.570;9.984;2023-07-31T10:30:06;100196.19;;;18.20;100.00
65190;BME280;51777;53.570;9.984;2023-07-31T10:32:33;100195.38;;;18.26;100.00
65190;BME280;51777;53.570;9.984;2023-07-31T10:35:01;100184.97;;;18.13;100.00
65190;BME280;51777;53.570;9.984;2023-07-31T10:37:36;100186.94;;;18.17;100.00
65190;BME280;51777;53.570;9.984;2023-07-31T10:40:12;100201.22;;;18.22;100.00
65190;BME280;51777;53.570;9.984;2023-07-31T10:42:58;100198.81;;;18.20;100.00
65190;BME280;51777;53.570;9.984;2023-07-31T10:45:39;100189.63;;;17.98;100.00
65190;BME280;51777;53.570;9.984;2023-07-31T10:48:12;100199.53;;;17.89;100.00
65190;BME280;51777;53.570;9.984;2023-07-31T10:50:49;100188.31;;;17.75;100.00
65190;BME280;51777;53.570;9.984;2023-07-31T10:53:31;100179.69;;;17.48;100.00
65190;BME280;51777;53.570;9.984;2023-07-31T10:58:30;100170.22;;;17.47;100.00
65190;BME280;51777;53.570;9.984;2023-07-31T11:00:58;100181.31;;;17.49;100.00
65190;BME280;51777;53.570;9.984;2023-07-31T11:03:26;100159.16;;;17.58;100.00
65190;BME280;51777;53.570;9.984;2023-07-31T11:05:55;100164.00;;;17.55;100.00
65190;BME280;51777;53.570;9.984;2023-07-31T11:11:07;100157.53;;;17.57;100.00
65190;BME280;51777;53.570;9.984;2023-07-31T11:13:40;100153.69;;;17.80;100.00
65190;BME280;51777;53.570;9.984;2023-07-31T11:16:07;100149.94;;;18.07;100.00
65190;BME280;51777;53.570;9.984;2023-07-31T11:18:32;100155.13;;;18.20;100.00
65190;BME280;51777;53.570;9.984;2023-07-31T11:20:58;100152.91;;;18.24;100.00
65190;BME280;51777;53.570;9.984;2023-07-31T11:23:24;100153.66;;;18.31;100.00
65190;BME280;51777;53.570;9.984;2023-07-31T11:25:50;100154.28;;;18.27;100.00
65190;BME280;51777;53.570;9.984;2023-07-31T11:28:16;100148.63;;;18.30;100.00
65190;BME280;51777;53.570;9.984;2023-07-31T11:30:43;100149.06;;;18.20;100.00
65190;BME280;51777;53.570;9.984;2023-07-31T11:33:12;100147.53;;;18.12;100.00
65190;BME280;51777;53.570;9.984;2023-07-31T11:35:48;100144.72;;;18.07;100.00
65190;BME280;51777;53.570;9.984;2023-07-31T11:38:31;100147.13;;;18.09;100.00
65190;BME280;51777;53.570;9.984;2023-07-31T11:41:02;100148.34;;;18.06;100.00
65190;BME280;51777;53.570;9.984;2023-07-31T11:43:28;100149.34;;;18.05;100.00
65190;BME280;51777;53.570;9.984;2023-07-31T11:45:58;100139.38;;;17.89;100.00
65190;BME280;51777;53.570;9.984;2023-07-31T11:48:28;100150.84;;;17.88;100.00
65190;BME280;51777;53.570;9.984;2023-07-31T11:50:58;100147.09;;;17.57;100.00
65190;BME280;51777;53.570;9.984;2023-07-31T11:53:31;100149.09;;;17.69;100.00
65190;BME280;51777;53.570;9.984;2023-07-31T11:55:59;100140.69;;;17.53;100.00
65190;BME280;51777;53.570;9.984;2023-07-31T11:58:26;100148.91;;;17.57;100.00
65190;BME280;51777;53.570;9.984;2023-07-31T12:00:53;100137.66;;;17.56;100.00
65190;BME280;51777;53.570;9.984;2023-07-31T12:03:19;100146.47;;;17.75;100.00
65190;BME280;51777;53.570;9.984;2023-07-31T12:05:47;100138.00;;;17.80;100.00
65190;BME280;51777;53.570;9.984;2023-07-31T12:08:13;100147.66;;;17.86;100.00
65190;BME280;51777;53.570;9.984;2023-07-31T12:10:38;100149.25;;;17.87;100.00
65190;BME280;51777;53.570;9.984;2023-07-31T12:13:08;100149.22;;;17.94;100.00
65190;BME280;51777;53.570;9.984;2023-07-31T12:15:43;100138.97;;;17.92;100.00
65190;BME280;51777;53.570;9.984;2023-07-31T12:18:13;100144.56;;;17.96;100.00
65190;BME280;51777;53.570;9.984;2023-07-31T12:20:54;100139.59;;;17.81;100.00
65190;BME280;51777;53.570;9.984;2023-07-31T12:23:22;100131.75;;;17.81;100.00
65190;BME280;51777;53.570;9.984;2023-07-31T12:26:03;100133.50;;;17.94;100.00
65190;BME280;51777;53.570;9.984;2023-07-31T12:28:28;100125.66;;;18.00;100.00
65190;BME280;51777;53.570;9.984;2023-07-31T12:30:58;100123.69;;;17.82;100.00
65190;BME280;51777;53.570;9.984;2023-07-31T12:33:31;100123.97;;;17.74;100.00
65190;BME280;51777;53.570;9.984;2023-07-31T12:35:57;100114.97;;;17.44;100.00
65190;BME280;51777;53.570;9.984;2023-07-31T12:38:23;100112.34;;;17.50;100.00
65190;BME280;51777;53.570;9.984;2023-07-31T12:40:48;100098.63;;;17.61;100.00
65190;BME280;51777;53.570;9.984;2023-07-31T12:43:13;100101.84;;;17.64;100.00
65190;BME280;51777;53.570;9.984;2023-07-31T12:45:39;100098.25;;;17.51;100.00
65190;BME280;51777;53.570;9.984;2023-07-31T12:48:04;100100.63;;;17.59;100.00
65190;BME280;51777;53.570;9.984;2023-07-31T12:50:30;100097.81;;;17.61;100.00
65190;BME280;51777;53.570;9.984;2023-07-31T12:52:56;100096.63;;;17.64;100.00
65190;BME280;51777;53.570;9.984;2023-07-31T12:55:23;100098.59;;;17.68;100.00
65190;BME280;51777;53.570;9.984;2023-07-31T12:57:49;100096.41;;;17.58;100.00
65190;BME280;51777;53.570;9.984;2023-07-31T13:00:15;100085.72;;;17.67;100.00